createdAt,value
2017-10-19T00:00:18.356Z,66.00
2017-10-19T00:02:45.993Z,66.20
2017-10-19T00:05:13.618Z,65.90
2017-10-19T00:07:41.297Z,67.00
2017-10-19T00:10:14.712Z,67.20
2017-10-19T00:15:21.528Z,66.40
2017-10-19T00:17:49.237Z,66.30
2017-10-19T00:20:16.861Z,65.80
2017-10-19T00:22:44.493Z,65.40
2017-10-19T00:25:12.232Z,65.00
2017-10-19T00:27:39.858Z,66.00
2017-10-19T00:30:07.482Z,66.50
2017-10-19T00:32:35.185Z,66.70
2017-10-19T00:35:02.806Z,66.40
2017-10-19T00:37:30.443Z,66.20
2017-10-19T00:39:58.124Z,65.60
2017-10-19T00:42:26.589Z,65.60
2017-10-19T00:44:54.250Z,65.90
2017-10-19T00:47:21.943Z,65.60
2017-10-19T00:49:49.559Z,65.30
2017-10-19T00:52:17.176Z,66.10
2017-10-19T00:54:44.865Z,66.20
2017-10-19T00:57:13.296Z,65.70
2017-10-19T00:59:40.931Z,66.50
2017-10-19T01:02:08.602Z,67.60
2017-10-19T01:04:36.233Z,67.40
2017-10-19T01:07:03.863Z,67.10
2017-10-19T01:09:31.556Z,67.10
2017-10-19T01:11:59.917Z,66.80
2017-10-19T01:16:55.213Z,66.00
2017-10-19T01:19:22.836Z,65.30
2017-10-19T01:21:50.467Z,64.40
2017-10-19T01:24:18.149Z,65.80
2017-10-19T01:26:46.510Z,67.70
2017-10-19T01:29:14.128Z,68.40
2017-10-19T01:34:20.910Z,68.70
2017-10-19T01:36:48.608Z,69.00
2017-10-19T01:41:43.877Z,69.30
2017-10-19T01:44:11.565Z,68.70
2017-10-19T01:46:39.194Z,68.10
2017-10-19T01:49:06.831Z,67.40
2017-10-19T01:51:34.508Z,67.20
2017-10-19T01:54:02.140Z,67.70
2017-10-19T01:56:29.761Z,67.60
2017-10-19T01:58:57.446Z,68.70
2017-10-19T02:01:25.068Z,69.40
2017-10-19T02:03:52.705Z,69.40
2017-10-19T02:06:20.389Z,68.70
2017-10-19T02:08:48.024Z,68.10
2017-10-19T02:11:15.647Z,67.50
2017-10-19T02:13:43.400Z,66.50
2017-10-19T02:16:11.020Z,66.00
2017-10-19T02:18:38.654Z,65.80
2017-10-19T02:21:06.337Z,65.30
2017-10-19T02:23:33.962Z,66.10
2017-10-19T02:26:01.587Z,68.20
2017-10-19T02:28:29.259Z,68.60
2017-10-19T02:30:57.723Z,67.70
2017-10-19T02:33:25.349Z,67.80
2017-10-19T02:35:53.028Z,68.30
2017-10-19T02:38:20.654Z,68.10
2017-10-19T02:40:48.277Z,67.60
2017-10-19T02:43:15.983Z,67.60
2017-10-19T02:45:43.617Z,67.50
2017-10-19T02:48:12.199Z,67.60
2017-10-19T02:53:09.200Z,66.90
2017-10-19T02:55:36.833Z,66.40
2017-10-19T03:00:44.559Z,64.80
2017-10-19T03:03:12.503Z,65.50
2017-10-19T03:05:40.134Z,66.70
2017-10-19T03:08:08.585Z,66.70
2017-10-19T03:10:36.265Z,66.10
2017-10-19T03:13:04.740Z,65.30
2017-10-19T03:15:32.376Z,65.00
2017-10-19T03:18:00.098Z,64.80
2017-10-19T03:22:55.366Z,64.50
2017-10-19T03:25:23.035Z,64.60
2017-10-19T03:27:50.651Z,64.40
2017-10-19T03:30:18.282Z,63.90
2017-10-19T03:32:45.961Z,63.40
2017-10-19T03:35:13.592Z,63.00
2017-10-19T03:37:41.216Z,63.00
2017-10-19T03:40:08.908Z,65.10
2017-10-19T03:42:36.614Z,67.30
2017-10-19T03:45:05.051Z,67.60
2017-10-19T03:47:32.750Z,67.40
2017-10-19T03:50:00.372Z,66.80
2017-10-19T03:52:28.002Z,66.30
2017-10-19T03:54:55.699Z,65.60
2017-10-19T03:57:23.310Z,65.00
2017-10-19T03:59:50.933Z,64.60
2017-10-19T04:02:18.611Z,65.30
2017-10-19T04:04:46.232Z,65.40
2017-10-19T04:07:13.881Z,65.40
2017-10-19T04:09:41.582Z,65.20
2017-10-19T04:14:36.844Z,66.70
2017-10-19T04:17:04.553Z,67.00
2017-10-19T04:19:32.169Z,66.40
2017-10-19T04:21:59.795Z,65.60
2017-10-19T04:24:27.498Z,65.20
2017-10-19T04:29:36.292Z,65.00
2017-10-19T04:32:04.748Z,65.40
2017-10-19T04:34:32.369Z,67.90
2017-10-19T04:37:00.053Z,67.50
2017-10-19T04:39:27.685Z,66.90
2017-10-19T04:41:55.318Z,66.50
2017-10-19T04:44:22.999Z,66.20
2017-10-19T04:46:50.625Z,66.10
2017-10-19T04:51:45.927Z,68.70
2017-10-19T04:54:13.545Z,68.70
2017-10-19T04:56:41.176Z,68.20
2017-10-19T04:59:08.857Z,68.30
2017-10-19T05:01:36.488Z,67.90
2017-10-19T05:04:04.128Z,68.20
2017-10-19T05:06:31.829Z,68.70
2017-10-19T05:08:59.528Z,67.90
2017-10-19T05:11:27.156Z,68.30
2017-10-19T05:13:54.829Z,67.30
2017-10-19T05:16:22.547Z,67.50
2017-10-19T05:18:50.077Z,67.30
2017-10-19T05:21:17.763Z,67.40
2017-10-19T05:26:13.037Z,68.20
2017-10-19T05:28:40.730Z,68.40
2017-10-19T05:31:08.361Z,68.70
2017-10-19T05:33:36.946Z,68.90
2017-10-19T05:36:04.631Z,69.70
2017-10-19T05:38:32.284Z,68.80
2017-10-19T05:41:00.020Z,68.60
2017-10-19T05:43:28.171Z,68.30
2017-10-19T05:45:55.829Z,68.90
2017-10-19T05:48:24.420Z,69.40
2017-10-19T05:53:29.707Z,69.40
2017-10-19T05:55:58.002Z,69.20
2017-10-19T05:58:25.722Z,68.80
2017-10-19T06:00:54.923Z,68.90
2017-10-19T06:03:24.079Z,69.40
2017-10-19T06:05:54.064Z,69.70
2017-10-19T06:08:22.782Z,71.10
2017-10-19T06:10:51.058Z,69.10
2017-10-19T06:13:18.892Z,68.50
2017-10-19T06:15:46.901Z,68.40
2017-10-19T06:18:15.200Z,68.20
2017-10-19T06:20:44.177Z,68.40
2017-10-19T06:23:13.058Z,70.00
2017-10-19T06:25:41.145Z,71.10
2017-10-19T06:30:39.016Z,71.50
2017-10-19T06:33:07.254Z,72.50
2017-10-19T06:35:35.206Z,72.40
2017-10-19T06:38:05.815Z,72.50
2017-10-19T06:40:33.506Z,72.00
2017-10-19T06:43:01.514Z,71.80
2017-10-19T06:45:29.537Z,70.70
2017-10-19T06:47:57.928Z,72.20
2017-10-19T06:50:25.982Z,71.10
2017-10-19T06:52:53.839Z,66.90
2017-10-19T06:55:22.877Z,68.30
2017-10-19T06:57:55.237Z,67.40
2017-10-19T07:00:23.359Z,65.60
2017-10-19T07:02:52.287Z,63.60
2017-10-19T07:05:21.056Z,63.40
2017-10-19T07:07:49.040Z,62.30
2017-10-19T07:10:17.063Z,60.80
2017-10-19T07:12:45.045Z,60.20
2017-10-19T07:15:17.208Z,59.70
2017-10-19T07:17:45.229Z,59.90
2017-10-19T07:22:49.641Z,58.00
2017-10-19T07:25:17.689Z,57.30
2017-10-19T07:27:45.952Z,57.30
2017-10-19T07:30:14.220Z,57.00
2017-10-19T07:32:47.456Z,56.40
2017-10-19T07:35:15.504Z,57.30
2017-10-19T07:37:43.582Z,56.50
2017-10-19T07:40:11.783Z,56.70
2017-10-19T07:42:39.899Z,54.60
2017-10-19T07:45:07.999Z,54.20
2017-10-19T07:47:36.181Z,53.70
2017-10-19T07:50:04.370Z,53.60
2017-10-19T07:52:32.607Z,54.50
2017-10-19T07:55:00.539Z,53.60
2017-10-19T07:57:28.664Z,53.00
2017-10-19T07:59:56.714Z,52.90
2017-10-19T08:02:24.932Z,52.60
2017-10-19T08:04:53.017Z,51.00
2017-10-19T08:07:21.446Z,48.40
2017-10-19T08:09:49.757Z,47.10
2017-10-19T08:12:18.725Z,45.40
2017-10-19T08:14:46.919Z,44.00
2017-10-19T08:17:15.310Z,45.80
2017-10-19T08:19:43.623Z,45.50
2017-10-19T08:22:11.627Z,44.10
2017-10-19T08:24:45.688Z,43.60
2017-10-19T08:27:14.704Z,43.50
2017-10-19T08:32:19.380Z,42.40
2017-10-19T08:34:48.621Z,43.10
2017-10-19T08:37:17.747Z,42.30
2017-10-19T08:39:45.783Z,41.50
2017-10-19T08:42:13.864Z,41.00
2017-10-19T08:44:43.134Z,40.50
2017-10-19T08:47:11.302Z,43.10
2017-10-19T08:49:40.058Z,44.50
2017-10-19T08:52:08.169Z,43.80
2017-10-19T08:54:36.288Z,45.40
2017-10-19T08:57:04.396Z,45.20
2017-10-19T08:59:36.559Z,43.90
2017-10-19T09:02:04.611Z,41.50
2017-10-19T09:04:32.604Z,41.00
2017-10-19T09:09:38.705Z,40.70
2017-10-19T09:14:35.846Z,37.90
2017-10-19T09:17:03.814Z,38.40
2017-10-19T09:19:33.017Z,37.90
2017-10-19T09:22:01.343Z,36.90
2017-10-19T09:24:33.470Z,36.50
2017-10-19T09:27:01.562Z,38.20
2017-10-19T09:31:57.643Z,39.20
2017-10-19T09:34:30.828Z,39.70
2017-10-19T09:36:58.895Z,38.20
2017-10-19T09:42:03.390Z,38.10
2017-10-19T09:44:31.526Z,38.30
2017-10-19T09:46:59.585Z,37.90
2017-10-19T09:49:27.783Z,35.70
2017-10-19T09:51:55.926Z,35.70
2017-10-19T09:54:24.334Z,35.90
2017-10-19T09:56:52.607Z,34.20
2017-10-19T09:59:21.928Z,33.50
2017-10-19T10:01:50.319Z,33.40
2017-10-19T10:04:18.495Z,33.20
2017-10-19T10:06:46.659Z,32.80
2017-10-19T10:09:14.739Z,32.50
2017-10-19T10:11:43.152Z,31.20
2017-10-19T10:14:11.308Z,32.30
2017-10-19T10:16:40.300Z,32.40
2017-10-19T10:19:08.455Z,32.70
2017-10-19T10:21:36.513Z,31.00
2017-10-19T10:24:04.684Z,30.10
2017-10-19T10:26:34.294Z,30.10
2017-10-19T10:29:02.506Z,30.30
2017-10-19T10:31:31.164Z,29.70
2017-10-19T10:34:04.330Z,30.20
2017-10-19T10:36:32.538Z,30.50
2017-10-19T10:39:00.737Z,31.50
2017-10-19T10:41:28.901Z,31.30
2017-10-19T10:43:57.068Z,30.50
2017-10-19T10:46:24.938Z,31.80
2017-10-19T10:48:53.253Z,30.30
2017-10-19T10:51:21.357Z,31.40
2017-10-19T10:53:50.482Z,31.70
2017-10-19T10:56:18.714Z,29.00
2017-10-19T11:01:24.604Z,26.40
2017-10-19T11:03:53.629Z,25.90
2017-10-19T11:06:26.749Z,26.10
2017-10-19T11:08:54.776Z,28.90
2017-10-19T11:11:23.028Z,27.90
2017-10-19T11:16:19.189Z,28.90
2017-10-19T11:21:17.186Z,29.00
2017-10-19T11:23:46.083Z,27.60
2017-10-19T11:26:14.223Z,27.20
2017-10-19T11:28:42.403Z,29.20
2017-10-19T11:31:10.425Z,28.30
2017-10-19T11:33:38.725Z,26.80
2017-10-19T11:36:06.712Z,25.80
2017-10-19T11:38:34.805Z,26.50
2017-10-19T11:41:02.918Z,25.40
2017-10-19T11:43:30.998Z,25.80
2017-10-19T11:48:27.165Z,25.80
2017-10-19T11:50:59.250Z,25.70
2017-10-19T11:53:27.292Z,26.50
2017-10-19T11:55:55.353Z,26.80
2017-10-19T11:58:23.284Z,23.70
2017-10-19T12:00:51.304Z,24.20
2017-10-19T12:03:19.908Z,25.30
2017-10-19T12:05:48.960Z,26.40
2017-10-19T12:08:17.010Z,24.50
2017-10-19T12:10:45.288Z,23.90
2017-10-19T12:13:13.404Z,24.90
2017-10-19T12:15:42.404Z,23.10
2017-10-19T12:18:10.755Z,23.90
2017-10-19T12:20:38.958Z,24.30
2017-10-19T12:25:45.250Z,26.70
2017-10-19T12:28:13.386Z,26.20
2017-10-19T12:30:41.877Z,25.20
2017-10-19T12:33:10.242Z,26.60
2017-10-19T12:35:38.611Z,24.80
2017-10-19T12:38:11.928Z,24.70
2017-10-19T12:40:40.116Z,24.30
2017-10-19T12:43:08.905Z,24.20
2017-10-19T12:45:37.920Z,26.00
2017-10-19T12:48:06.969Z,27.30
2017-10-19T12:50:35.051Z,25.10
2017-10-19T12:53:03.288Z,25.50
2017-10-19T12:55:31.315Z,24.80
2017-10-19T13:00:27.793Z,25.10
2017-10-19T13:02:56.943Z,25.70
2017-10-19T13:05:25.542Z,27.20
2017-10-19T13:07:54.201Z,24.60
2017-10-19T13:10:22.170Z,26.00
2017-10-19T13:12:51.045Z,25.00
2017-10-19T13:15:23.274Z,24.70
2017-10-19T13:17:51.418Z,23.70
2017-10-19T13:20:19.760Z,24.30
2017-10-19T13:22:47.744Z,24.40
2017-10-19T13:25:15.715Z,23.40
2017-10-19T13:27:44.039Z,23.60
2017-10-19T13:30:13.021Z,21.60
2017-10-19T13:32:41.228Z,23.80
2017-10-19T13:35:09.331Z,23.90
2017-10-19T13:37:37.292Z,22.90
2017-10-19T13:40:06.319Z,24.70
2017-10-19T13:42:35.363Z,23.70
2017-10-19T13:45:03.452Z,24.90
2017-10-19T13:47:31.722Z,24.40
2017-10-19T13:49:59.980Z,24.50
2017-10-19T13:55:11.501Z,24.10
2017-10-19T13:57:39.519Z,22.10
2017-10-19T14:00:08.610Z,23.30
2017-10-19T14:02:37.011Z,23.60
2017-10-19T14:05:05.140Z,23.80
2017-10-19T14:10:01.366Z,25.40
2017-10-19T14:12:29.607Z,26.00
2017-10-19T14:14:57.661Z,26.20
2017-10-19T14:17:25.735Z,25.30
2017-10-19T14:19:54.611Z,27.70
2017-10-19T14:22:22.959Z,26.80
2017-10-19T14:24:51.186Z,27.10
2017-10-19T14:27:19.390Z,26.60
2017-10-19T14:29:47.413Z,26.90
2017-10-19T14:32:15.695Z,26.50
2017-10-19T14:37:12.335Z,28.40
2017-10-19T14:39:40.558Z,27.90
2017-10-19T14:42:09.620Z,27.20
2017-10-19T14:44:37.655Z,27.30
2017-10-19T14:47:05.901Z,26.70
2017-10-19T14:49:34.060Z,26.60
2017-10-19T14:52:02.110Z,27.10
2017-10-19T14:54:30.325Z,27.50
2017-10-19T14:56:58.342Z,27.10
2017-10-19T14:59:26.371Z,27.20
2017-10-19T15:01:54.723Z,27.10
2017-10-19T15:04:22.661Z,27.90
2017-10-19T15:06:50.814Z,29.00
2017-10-19T15:09:19.121Z,30.70
2017-10-19T15:11:47.190Z,30.80
2017-10-19T15:14:15.403Z,30.00
2017-10-19T15:16:44.302Z,30.80
2017-10-19T15:19:12.287Z,31.30
2017-10-19T15:24:17.188Z,31.20
2017-10-19T15:26:45.221Z,32.00
2017-10-19T15:29:14.279Z,31.30
2017-10-19T15:31:42.610Z,31.20
2017-10-19T15:34:10.789Z,33.20
2017-10-19T15:36:39.085Z,34.20
2017-10-19T15:39:07.188Z,32.70
2017-10-19T15:41:35.134Z,34.50
2017-10-19T15:44:03.274Z,36.40
2017-10-19T15:46:32.121Z,35.50
2017-10-19T15:51:28.418Z,34.80
2017-10-19T15:53:56.592Z,35.20
2017-10-19T15:56:24.837Z,36.20
2017-10-19T15:58:52.844Z,36.20
2017-10-19T16:01:21.883Z,37.40
2017-10-19T16:03:49.931Z,37.60
2017-10-19T16:06:18.178Z,37.60
2017-10-19T16:08:46.477Z,38.00
2017-10-19T16:11:14.773Z,39.50
2017-10-19T16:13:43.338Z,40.00
2017-10-19T16:18:44.704Z,42.00
2017-10-19T16:21:17.927Z,41.80
2017-10-19T16:23:46.116Z,42.70
2017-10-19T16:26:14.343Z,43.50
2017-10-19T16:28:43.720Z,43.10
2017-10-19T16:31:11.762Z,43.30
2017-10-19T16:36:08.283Z,42.90
2017-10-19T16:38:36.281Z,42.60
2017-10-19T16:49:28.288Z,40.70
2017-10-19T16:51:56.344Z,39.60
2017-10-19T16:57:01.220Z,39.90
2017-10-19T16:59:29.301Z,39.90
2017-10-19T17:01:58.850Z,40.90
2017-10-19T17:04:27.650Z,40.50
2017-10-19T17:09:24.868Z,41.60
2017-10-19T17:11:57.234Z,41.70
2017-10-19T17:14:25.318Z,42.50
2017-10-19T17:16:53.654Z,43.90
2017-10-19T17:19:21.964Z,43.80
2017-10-19T17:21:50.239Z,43.70
2017-10-19T17:35:51.230Z,45.70
2017-10-19T17:41:15.407Z,46.20
2017-10-19T17:43:43.315Z,46.80
2017-10-19T17:46:11.544Z,47.10
2017-10-19T17:48:39.454Z,47.10
2017-10-19T17:51:07.499Z,48.00
2017-10-19T17:53:35.431Z,47.50
2017-10-19T17:56:03.547Z,48.80
2017-10-19T17:58:31.311Z,49.40
2017-10-19T18:00:59.292Z,49.30
2017-10-19T18:03:27.481Z,49.10
2017-10-19T18:06:00.379Z,48.70
2017-10-19T18:08:28.728Z,49.30
2017-10-19T18:16:26.472Z,48.50
2017-10-19T18:18:54.888Z,47.80
2017-10-19T18:21:22.974Z,47.10
2017-10-19T18:23:53.324Z,47.30
2017-10-19T18:26:22.531Z,48.70
2017-10-19T18:28:50.603Z,48.80
2017-10-19T18:31:18.693Z,49.20
2017-10-19T18:33:51.644Z,52.10
2017-10-19T18:36:19.456Z,52.10
2017-10-19T18:38:56.102Z,51.70
2017-10-19T18:41:25.378Z,52.70
2017-10-19T18:43:54.129Z,52.70
2017-10-19T18:46:27.811Z,52.40
2017-10-19T19:00:20.833Z,54.10
2017-10-19T19:02:48.815Z,53.50
2017-10-19T19:05:16.926Z,53.40
2017-10-19T19:07:49.911Z,53.20
2017-10-19T19:13:05.722Z,52.60
2017-10-19T19:15:34.247Z,52.90
2017-10-19T19:18:02.435Z,52.50
2017-10-19T19:23:13.541Z,55.80
2017-10-19T19:37:14.891Z,55.50
2017-10-19T19:39:42.578Z,55.30
2017-10-19T19:42:10.406Z,55.70
2017-10-19T19:47:16.100Z,56.60
2017-10-19T19:49:44.459Z,56.40
2017-10-19T19:52:17.669Z,56.70
2017-10-19T19:54:46.540Z,56.00
2017-10-19T19:57:14.584Z,57.40
2017-10-19T19:59:43.675Z,57.80
2017-10-19T20:02:11.890Z,57.70
2017-10-19T20:04:44.766Z,58.50
2017-10-19T20:07:12.912Z,58.20
2017-10-19T20:09:46.261Z,57.50
2017-10-19T20:12:16.623Z,56.40
2017-10-19T20:14:45.083Z,58.20
2017-10-19T20:17:14.453Z,58.30
2017-10-19T20:19:42.732Z,58.00
2017-10-19T20:22:10.741Z,58.00
2017-10-19T20:24:40.103Z,57.80
2017-10-19T20:27:13.327Z,57.40
2017-10-19T20:29:49.184Z,57.60
2017-10-19T20:32:17.875Z,57.50
2017-10-19T20:34:46.897Z,57.40
2017-10-19T20:37:15.301Z,57.40
2017-10-19T20:39:48.038Z,57.40
2017-10-19T20:42:16.932Z,57.00
2017-10-19T20:44:45.902Z,57.40
2017-10-19T20:47:14.893Z,57.30
2017-10-19T20:49:47.333Z,58.20
2017-10-19T20:52:15.665Z,58.50
2017-10-19T20:54:43.707Z,58.20
2017-10-19T20:57:12.047Z,57.80
2017-10-19T20:59:40.388Z,58.70
2017-10-19T21:02:08.820Z,57.70
2017-10-19T21:04:37.057Z,57.50
2017-10-19T21:07:05.411Z,59.40
2017-10-19T21:12:20.785Z,59.00
2017-10-19T21:14:48.706Z,59.00
2017-10-19T21:19:57.425Z,58.10
2017-10-19T21:22:27.383Z,59.30
2017-10-19T21:24:55.244Z,59.20
2017-10-19T21:27:23.636Z,58.80
2017-10-19T21:29:51.608Z,58.80
2017-10-19T21:32:20.297Z,59.80
2017-10-19T21:34:49.044Z,60.10
2017-10-19T21:37:23.153Z,60.50
2017-10-19T21:39:51.365Z,61.30
2017-10-19T21:42:20.458Z,62.00
2017-10-19T21:44:48.568Z,64.00
2017-10-19T21:47:17.034Z,62.90
2017-10-19T21:49:45.562Z,66.70
2017-10-19T21:52:14.854Z,61.10
2017-10-19T21:54:43.047Z,61.20
2017-10-19T21:57:11.367Z,60.80
2017-10-19T21:59:39.667Z,60.60
2017-10-19T22:02:07.881Z,60.90
2017-10-19T22:04:41.660Z,61.80
2017-10-19T22:07:13.619Z,62.10
2017-10-19T22:09:42.246Z,63.40
2017-10-19T22:12:14.847Z,63.60
2017-10-19T22:17:22.099Z,62.30
2017-10-19T22:19:50.139Z,61.70
2017-10-19T22:22:19.383Z,63.00
2017-10-19T22:24:47.264Z,62.70
2017-10-19T22:27:15.268Z,63.00
2017-10-19T22:29:43.364Z,63.00
2017-10-19T22:32:12.904Z,62.90
2017-10-19T22:34:40.851Z,63.30
2017-10-19T22:37:09.117Z,63.40
2017-10-19T22:39:37.232Z,64.10
2017-10-19T22:42:05.613Z,63.50
2017-10-19T22:47:11.585Z,63.80
2017-10-19T22:49:39.828Z,64.30
2017-10-19T22:52:08.810Z,63.80
2017-10-19T22:54:36.885Z,63.50
2017-10-19T22:57:05.079Z,64.50
2017-10-19T22:59:33.531Z,65.00
2017-10-19T23:04:31.311Z,63.70
2017-10-19T23:06:59.407Z,63.80
2017-10-19T23:09:27.434Z,63.90
2017-10-19T23:14:24.800Z,63.90
2017-10-19T23:16:53.335Z,64.90
2017-10-19T23:19:22.393Z,65.50
2017-10-19T23:21:51.633Z,64.20
2017-10-19T23:24:21.397Z,64.40
2017-10-19T23:26:49.590Z,64.90
2017-10-19T23:29:17.851Z,65.20
2017-10-19T23:31:48.050Z,66.00
2017-10-19T23:34:16.113Z,66.70
2017-10-19T23:36:44.287Z,66.90
2017-10-19T23:39:13.470Z,67.30
2017-10-19T23:41:41.705Z,67.20
2017-10-19T23:44:10.644Z,66.90
2017-10-19T23:46:38.705Z,66.10
2017-10-19T23:49:06.744Z,67.80
2017-10-19T23:51:34.860Z,67.80
2017-10-19T23:54:03.043Z,67.20
2017-10-19T23:56:31.020Z,67.80
2017-10-19T23:58:59.176Z,68.50
